sensor_id;sensor_type;location;lat;lon;timestamp;P1;durP1;ratioP1;P2;durP2;ratioP2
73382;SDS011;61600;48.126;11.542;2023-07-13T00:01:46;4.32;;;2.58;;
73382;SDS011;61600;48.126;11.542;2023-07-13T00:04:17;4.65;;;2.58;;
73382;SDS011;61600;48.126;11.542;2023-07-13T00:06:45;4.10;;;2.45;;
73382;SDS011;61600;48.126;11.542;2023-07-13T00:09:13;7.40;;;2.95;;
73382;SDS011;61600;48.126;11.542;2023-07-13T00:11:40;5.78;;;2.47;;
73382;SDS011;61600;48.126;11.542;2023-07-13T00:14:06;3.92;;;2.55;;
73382;SDS011;61600;48.126;11.542;2023-07-13T00:16:34;4.40;;;2.50;;
73382;SDS011;61600;48.126;11.542;2023-07-13T00:19:04;3.72;;;2.20;;
73382;SDS011;61600;48.126;11.542;2023-07-13T00:21:30;4.07;;;2.35;;
73382;SDS011;61600;48.126;11.542;2023-07-13T00:23:56;4.38;;;2.33;;
73382;SDS011;61600;48.126;11.542;2023-07-13T00:26:22;4.63;;;2.10;;
73382;SDS011;61600;48.126;11.542;2023-07-13T00:28:47;4.07;;;2.15;;
73382;SDS011;61600;48.126;11.542;2023-07-13T00:31:13;4.95;;;2.20;;
73382;SDS011;61600;48.126;11.542;2023-07-13T00:33:42;4.65;;;2.35;;
73382;SDS011;61600;48.126;11.542;2023-07-13T00:36:09;5.25;;;2.15;;
73382;SDS011;61600;48.126;11.542;2023-07-13T00:41:02;3.10;;;2.05;;
73382;SDS011;61600;48.126;11.542;2023-07-13T00:43:29;4.05;;;2.10;;
73382;SDS011;61600;48.126;11.542;2023-07-13T00:48:23;4.00;;;2.33;;
73382;SDS011;61600;48.126;11.542;2023-07-13T00:50:55;3.25;;;1.90;;
73382;SDS011;61600;48.126;11.542;2023-07-13T00:53:24;3.75;;;1.63;;
73382;SDS011;61600;48.126;11.542;2023-07-13T00:55:51;4.82;;;1.98;;
73382;SDS011;61600;48.126;11.542;2023-07-13T00:58:20;4.90;;;2.00;;
73382;SDS011;61600;48.126;11.542;2023-07-13T01:00:46;4.28;;;1.95;;
73382;SDS011;61600;48.126;11.542;2023-07-13T01:03:14;4.25;;;1.80;;
73382;SDS011;61600;48.126;11.542;2023-07-13T01:05:40;2.38;;;1.50;;
73382;SDS011;61600;48.126;11.542;2023-07-13T01:08:06;3.40;;;1.70;;
73382;SDS011;61600;48.126;11.542;2023-07-13T01:10:34;3.67;;;1.77;;
73382;SDS011;61600;48.126;11.542;2023-07-13T01:13:07;3.47;;;1.77;;
73382;SDS011;61600;48.126;11.542;2023-07-13T01:15:37;5.07;;;1.95;;
73382;SDS011;61600;48.126;11.542;2023-07-13T01:18:05;5.80;;;1.77;;
73382;SDS011;61600;48.126;11.542;2023-07-13T01:20:34;4.07;;;1.83;;
73382;SDS011;61600;48.126;11.542;2023-07-13T01:23:03;3.08;;;2.03;;
73382;SDS011;61600;48.126;11.542;2023-07-13T01:25:31;3.80;;;1.60;;
73382;SDS011;61600;48.126;11.542;2023-07-13T01:27:57;3.13;;;2.05;;
73382;SDS011;61600;48.126;11.542;2023-07-13T01:30:23;4.43;;;1.88;;
73382;SDS011;61600;48.126;11.542;2023-07-13T01:32:49;4.85;;;1.90;;
73382;SDS011;61600;48.126;11.542;2023-07-13T01:35:14;3.80;;;1.90;;
73382;SDS011;61600;48.126;11.542;2023-07-13T01:37:42;2.90;;;1.65;;
73382;SDS011;61600;48.126;11.542;2023-07-13T01:40:10;4.40;;;2.00;;
73382;SDS011;61600;48.126;11.542;2023-07-13T01:42:37;4.30;;;2.05;;
73382;SDS011;61600;48.126;11.542;2023-07-13T01:45:03;4.65;;;1.60;;
73382;SDS011;61600;48.126;11.542;2023-07-13T01:47:29;3.33;;;1.90;;
73382;SDS011;61600;48.126;11.542;2023-07-13T01:49:56;5.70;;;2.13;;
73382;SDS011;61600;48.126;11.542;2023-07-13T01:54:48;3.38;;;2.00;;
73382;SDS011;61600;48.126;11.542;2023-07-13T01:57:14;4.25;;;2.35;;
73382;SDS011;61600;48.126;11.542;2023-07-13T01:59:40;4.30;;;2.10;;
73382;SDS011;61600;48.126;11.542;2023-07-13T02:02:06;3.42;;;2.00;;
73382;SDS011;61600;48.126;11.542;2023-07-13T02:04:32;5.47;;;2.22;;
73382;SDS011;61600;48.126;11.542;2023-07-13T02:06:58;4.40;;;2.25;;
73382;SDS011;61600;48.126;11.542;2023-07-13T02:09:24;4.70;;;2.17;;
73382;SDS011;61600;48.126;11.542;2023-07-13T02:11:50;4.78;;;2.35;;
73382;SDS011;61600;48.126;11.542;2023-07-13T02:14:17;3.30;;;2.20;;
73382;SDS011;61600;48.126;11.542;2023-07-13T02:16:43;5.78;;;2.75;;
73382;SDS011;61600;48.126;11.542;2023-07-13T02:19:08;3.88;;;2.38;;
73382;SDS011;61600;48.126;11.542;2023-07-13T02:21:34;4.10;;;2.10;;
73382;SDS011;61600;48.126;11.542;2023-07-13T02:24:00;5.00;;;2.40;;
73382;SDS011;61600;48.126;11.542;2023-07-13T02:26:26;5.47;;;2.40;;
73382;SDS011;61600;48.126;11.542;2023-07-13T02:28:53;4.30;;;2.13;;
73382;SDS011;61600;48.126;11.542;2023-07-13T02:31:19;4.68;;;2.33;;
73382;SDS011;61600;48.126;11.542;2023-07-13T02:33:45;4.43;;;2.35;;
73382;SDS011;61600;48.126;11.542;2023-07-13T02:36:11;3.75;;;2.33;;
73382;SDS011;61600;48.126;11.542;2023-07-13T02:38:39;7.50;;;2.67;;
73382;SDS011;61600;48.126;11.542;2023-07-13T02:41:05;3.97;;;2.20;;
73382;SDS011;61600;48.126;11.542;2023-07-13T02:43:32;4.28;;;2.38;;
73382;SDS011;61600;48.126;11.542;2023-07-13T02:46:01;4.32;;;2.20;;
73382;SDS011;61600;48.126;11.542;2023-07-13T02:48:36;4.15;;;2.58;;
73382;SDS011;61600;48.126;11.542;2023-07-13T02:51:03;11.40;;;2.80;;
73382;SDS011;61600;48.126;11.542;2023-07-13T02:53:29;10.13;;;2.97;;
73382;SDS011;61600;48.126;11.542;2023-07-13T02:55:55;9.50;;;3.38;;
73382;SDS011;61600;48.126;11.542;2023-07-13T02:58:21;7.13;;;3.55;;
73382;SDS011;61600;48.126;11.542;2023-07-13T03:00:47;4.97;;;3.15;;
73382;SDS011;61600;48.126;11.542;2023-07-13T03:03:15;7.55;;;3.50;;
73382;SDS011;61600;48.126;11.542;2023-07-13T03:05:42;6.10;;;3.00;;
73382;SDS011;61600;48.126;11.542;2023-07-13T03:08:10;10.32;;;3.35;;
73382;SDS011;61600;48.126;11.542;2023-07-13T03:10:36;7.22;;;3.28;;
73382;SDS011;61600;48.126;11.542;2023-07-13T03:15:29;5.30;;;3.00;;
73382;SDS011;61600;48.126;11.542;2023-07-13T03:17:54;5.22;;;2.90;;
73382;SDS011;61600;48.126;11.542;2023-07-13T03:20:20;6.35;;;3.15;;
73382;SDS011;61600;48.126;11.542;2023-07-13T03:22:46;5.93;;;3.00;;
73382;SDS011;61600;48.126;11.542;2023-07-13T03:25:12;8.23;;;3.08;;
73382;SDS011;61600;48.126;11.542;2023-07-13T03:27:38;7.53;;;3.03;;
73382;SDS011;61600;48.126;11.542;2023-07-13T03:30:04;6.97;;;3.33;;
73382;SDS011;61600;48.126;11.542;2023-07-13T03:34:56;7.35;;;3.05;;
73382;SDS011;61600;48.126;11.542;2023-07-13T03:37:22;9.15;;;3.05;;
73382;SDS011;61600;48.126;11.542;2023-07-13T03:39:47;7.45;;;2.97;;
73382;SDS011;61600;48.126;11.542;2023-07-13T03:42:14;7.38;;;2.97;;
73382;SDS011;61600;48.126;11.542;2023-07-13T03:44:40;7.22;;;3.65;;
73382;SDS011;61600;48.126;11.542;2023-07-13T03:47:06;10.18;;;3.47;;
73382;SDS011;61600;48.126;11.542;2023-07-13T03:49:34;8.70;;;3.05;;
73382;SDS011;61600;48.126;11.542;2023-07-13T03:52:00;8.07;;;4.05;;
73382;SDS011;61600;48.126;11.542;2023-07-13T03:54:26;4.75;;;2.63;;
73382;SDS011;61600;48.126;11.542;2023-07-13T03:56:52;5.88;;;2.80;;
73382;SDS011;61600;48.126;11.542;2023-07-13T03:59:17;4.90;;;2.95;;
73382;SDS011;61600;48.126;11.542;2023-07-13T04:01:43;4.53;;;2.78;;
73382;SDS011;61600;48.126;11.542;2023-07-13T04:04:09;5.63;;;3.28;;
73382;SDS011;61600;48.126;11.542;2023-07-13T04:06:35;6.40;;;3.72;;
73382;SDS011;61600;48.126;11.542;2023-07-13T04:09:01;5.30;;;3.08;;
73382;SDS011;61600;48.126;11.542;2023-07-13T04:11:30;6.22;;;3.35;;
73382;SDS011;61600;48.126;11.542;2023-07-13T04:13:57;5.38;;;2.60;;
73382;SDS011;61600;48.126;11.542;2023-07-13T04:16:24;5.82;;;2.63;;
73382;SDS011;61600;48.126;11.542;2023-07-13T04:18:50;6.90;;;2.80;;
73382;SDS011;61600;48.126;11.542;2023-07-13T04:21:20;7.63;;;2.70;;
73382;SDS011;61600;48.126;11.542;2023-07-13T04:26:12;5.93;;;2.80;;
73382;SDS011;61600;48.126;11.542;2023-07-13T04:28:38;4.20;;;2.60;;
73382;SDS011;61600;48.126;11.542;2023-07-13T04:31:04;5.00;;;2.67;;
73382;SDS011;61600;48.126;11.542;2023-07-13T04:33:30;6.70;;;2.95;;
73382;SDS011;61600;48.126;11.542;2023-07-13T04:35:56;6.22;;;2.40;;
73382;SDS011;61600;48.126;11.542;2023-07-13T04:38:23;4.18;;;2.50;;
73382;SDS011;61600;48.126;11.542;2023-07-13T04:40:50;4.53;;;2.83;;
73382;SDS011;61600;48.126;11.542;2023-07-13T04:45:43;5.28;;;2.28;;
73382;SDS011;61600;48.126;11.542;2023-07-13T04:48:08;5.30;;;2.85;;
73382;SDS011;61600;48.126;11.542;2023-07-13T04:50:37;4.10;;;2.22;;
73382;SDS011;61600;48.126;11.542;2023-07-13T04:53:03;4.57;;;2.47;;
73382;SDS011;61600;48.126;11.542;2023-07-13T04:55:30;6.70;;;3.25;;
73382;SDS011;61600;48.126;11.542;2023-07-13T04:57:56;5.57;;;2.83;;
73382;SDS011;61600;48.126;11.542;2023-07-13T05:00:26;6.20;;;2.92;;
73382;SDS011;61600;48.126;11.542;2023-07-13T05:02:53;5.93;;;2.92;;
73382;SDS011;61600;48.126;11.542;2023-07-13T05:05:20;6.80;;;2.95;;
73382;SDS011;61600;48.126;11.542;2023-07-13T05:07:45;5.28;;;2.45;;
73382;SDS011;61600;48.126;11.542;2023-07-13T05:10:11;4.82;;;2.30;;
73382;SDS011;61600;48.126;11.542;2023-07-13T05:12:37;7.93;;;3.55;;
73382;SDS011;61600;48.126;11.542;2023-07-13T05:15:03;5.50;;;2.42;;
73382;SDS011;61600;48.126;11.542;2023-07-13T05:17:29;4.18;;;2.60;;
73382;SDS011;61600;48.126;11.542;2023-07-13T05:19:55;6.97;;;3.20;;
73382;SDS011;61600;48.126;11.542;2023-07-13T05:22:20;4.25;;;2.63;;
73382;SDS011;61600;48.126;11.542;2023-07-13T05:24:46;4.57;;;2.92;;
73382;SDS011;61600;48.126;11.542;2023-07-13T05:27:12;5.88;;;2.55;;
73382;SDS011;61600;48.126;11.542;2023-07-13T05:29:37;6.03;;;2.67;;
73382;SDS011;61600;48.126;11.542;2023-07-13T05:32:03;5.07;;;2.83;;
73382;SDS011;61600;48.126;11.542;2023-07-13T05:34:30;6.80;;;2.92;;
73382;SDS011;61600;48.126;11.542;2023-07-13T05:36:55;6.05;;;2.78;;
73382;SDS011;61600;48.126;11.542;2023-07-13T05:39:21;5.90;;;2.50;;
73382;SDS011;61600;48.126;11.542;2023-07-13T05:41:48;6.07;;;2.65;;
73382;SDS011;61600;48.126;11.542;2023-07-13T05:44:14;5.93;;;2.97;;
73382;SDS011;61600;48.126;11.542;2023-07-13T05:46:39;4.57;;;2.95;;
73382;SDS011;61600;48.126;11.542;2023-07-13T05:49:05;4.78;;;2.53;;
73382;SDS011;61600;48.126;11.542;2023-07-13T05:51:31;7.20;;;2.80;;
73382;SDS011;61600;48.126;11.542;2023-07-13T05:53:56;6.70;;;2.38;;
73382;SDS011;61600;48.126;11.542;2023-07-13T05:56:22;6.18;;;2.60;;
73382;SDS011;61600;48.126;11.542;2023-07-13T05:58:48;4.10;;;2.22;;
73382;SDS011;61600;48.126;11.542;2023-07-13T06:01:15;5.75;;;2.72;;
73382;SDS011;61600;48.126;11.542;2023-07-13T06:03:41;11.02;;;2.40;;
73382;SDS011;61600;48.126;11.542;2023-07-13T06:06:07;6.63;;;2.97;;
73382;SDS011;61600;48.126;11.542;2023-07-13T06:08:34;9.05;;;4.47;;
73382;SDS011;61600;48.126;11.542;2023-07-13T06:11:01;7.72;;;3.28;;
73382;SDS011;61600;48.126;11.542;2023-07-13T06:13:29;6.57;;;2.97;;
73382;SDS011;61600;48.126;11.542;2023-07-13T06:15:54;5.97;;;3.28;;
73382;SDS011;61600;48.126;11.542;2023-07-13T06:18:20;6.70;;;3.55;;
73382;SDS011;61600;48.126;11.542;2023-07-13T06:20:46;11.02;;;4.20;;
73382;SDS011;61600;48.126;11.542;2023-07-13T06:23:11;5.32;;;3.20;;
73382;SDS011;61600;48.126;11.542;2023-07-13T06:25:37;4.88;;;2.65;;
73382;SDS011;61600;48.126;11.542;2023-07-13T06:28:03;6.03;;;2.70;;
73382;SDS011;61600;48.126;11.542;2023-07-13T06:30:29;4.53;;;2.28;;
73382;SDS011;61600;48.126;11.542;2023-07-13T06:33:02;5.72;;;2.72;;
73382;SDS011;61600;48.126;11.542;2023-07-13T06:35:28;5.07;;;2.38;;
73382;SDS011;61600;48.126;11.542;2023-07-13T06:37:54;5.82;;;2.83;;
73382;SDS011;61600;48.126;11.542;2023-07-13T06:40:20;4.90;;;2.50;;
73382;SDS011;61600;48.126;11.542;2023-07-13T06:42:46;5.20;;;2.38;;
73382;SDS011;61600;48.126;11.542;2023-07-13T06:45:11;8.73;;;2.60;;
73382;SDS011;61600;48.126;11.542;2023-07-13T06:47:37;6.93;;;2.28;;
73382;SDS011;61600;48.126;11.542;2023-07-13T06:50:03;4.88;;;2.50;;
73382;SDS011;61600;48.126;11.542;2023-07-13T06:52:28;5.75;;;2.15;;
73382;SDS011;61600;48.126;11.542;2023-07-13T06:54:54;15.63;;;9.38;;
73382;SDS011;61600;48.126;11.542;2023-07-13T06:57:20;8.23;;;2.60;;
73382;SDS011;61600;48.126;11.542;2023-07-13T06:59:46;4.03;;;2.30;;
73382;SDS011;61600;48.126;11.542;2023-07-13T07:02:12;8.25;;;2.40;;
73382;SDS011;61600;48.126;11.542;2023-07-13T07:04:38;5.20;;;2.42;;
73382;SDS011;61600;48.126;11.542;2023-07-13T07:07:04;4.78;;;2.10;;
73382;SDS011;61600;48.126;11.542;2023-07-13T07:09:29;5.20;;;2.13;;
73382;SDS011;61600;48.126;11.542;2023-07-13T07:11:56;5.88;;;2.42;;
73382;SDS011;61600;48.126;11.542;2023-07-13T07:14:23;4.35;;;2.45;;
73382;SDS011;61600;48.126;11.542;2023-07-13T07:16:49;5.50;;;2.60;;
73382;SDS011;61600;48.126;11.542;2023-07-13T07:19:15;6.45;;;2.30;;
73382;SDS011;61600;48.126;11.542;2023-07-13T07:21:44;5.13;;;2.38;;
73382;SDS011;61600;48.126;11.542;2023-07-13T07:24:09;5.82;;;2.53;;
73382;SDS011;61600;48.126;11.542;2023-07-13T07:26:35;6.10;;;1.90;;
73382;SDS011;61600;48.126;11.542;2023-07-13T07:29:01;6.00;;;2.03;;
73382;SDS011;61600;48.126;11.542;2023-07-13T07:31:27;5.10;;;2.55;;
73382;SDS011;61600;48.126;11.542;2023-07-13T07:33:53;4.55;;;2.00;;
73382;SDS011;61600;48.126;11.542;2023-07-13T07:36:18;6.32;;;2.10;;
73382;SDS011;61600;48.126;11.542;2023-07-13T07:38:44;6.68;;;2.35;;
73382;SDS011;61600;48.126;11.542;2023-07-13T07:41:10;6.97;;;3.03;;
73382;SDS011;61600;48.126;11.542;2023-07-13T07:43:56;4.95;;;2.08;;
73382;SDS011;61600;48.126;11.542;2023-07-13T07:46:22;6.25;;;2.35;;
73382;SDS011;61600;48.126;11.542;2023-07-13T07:48:48;5.75;;;2.35;;
73382;SDS011;61600;48.126;11.542;2023-07-13T07:51:13;6.35;;;2.30;;
73382;SDS011;61600;48.126;11.542;2023-07-13T07:53:39;7.07;;;2.17;;
73382;SDS011;61600;48.126;11.542;2023-07-13T07:56:05;6.50;;;2.13;;
73382;SDS011;61600;48.126;11.542;2023-07-13T07:58:31;5.13;;;2.40;;
73382;SDS011;61600;48.126;11.542;2023-07-13T08:01:03;5.93;;;2.33;;
73382;SDS011;61600;48.126;11.542;2023-07-13T08:03:30;4.90;;;2.30;;
73382;SDS011;61600;48.126;11.542;2023-07-13T08:05:56;7.18;;;2.40;;
73382;SDS011;61600;48.126;11.542;2023-07-13T08:08:22;4.78;;;2.58;;
73382;SDS011;61600;48.126;11.542;2023-07-13T08:10:47;6.35;;;2.15;;
73382;SDS011;61600;48.126;11.542;2023-07-13T08:13:13;5.53;;;2.15;;
73382;SDS011;61600;48.126;11.542;2023-07-13T08:15:39;5.00;;;1.73;;
73382;SDS011;61600;48.126;11.542;2023-07-13T08:18:05;7.75;;;2.78;;
73382;SDS011;61600;48.126;11.542;2023-07-13T08:20:38;7.10;;;2.65;;
73382;SDS011;61600;48.126;11.542;2023-07-13T08:23:05;6.18;;;2.10;;
73382;SDS011;61600;48.126;11.542;2023-07-13T08:25:31;5.93;;;2.45;;
73382;SDS011;61600;48.126;11.542;2023-07-13T08:27:57;7.07;;;2.38;;
73382;SDS011;61600;48.126;11.542;2023-07-13T08:30:23;7.07;;;2.40;;
73382;SDS011;61600;48.126;11.542;2023-07-13T08:32:49;8.88;;;2.20;;
73382;SDS011;61600;48.126;11.542;2023-07-13T08:35:15;4.43;;;2.53;;
73382;SDS011;61600;48.126;11.542;2023-07-13T08:37:41;6.93;;;2.60;;
73382;SDS011;61600;48.126;11.542;2023-07-13T08:40:10;3.78;;;2.05;;
73382;SDS011;61600;48.126;11.542;2023-07-13T08:42:46;4.80;;;2.40;;
73382;SDS011;61600;48.126;11.542;2023-07-13T08:45:21;6.05;;;2.47;;
73382;SDS011;61600;48.126;11.542;2023-07-13T08:47:51;9.27;;;1.90;;
73382;SDS011;61600;48.126;11.542;2023-07-13T08:50:21;7.97;;;2.10;;
73382;SDS011;61600;48.126;11.542;2023-07-13T08:52:54;4.68;;;2.28;;
73382;SDS011;61600;48.126;11.542;2023-07-13T08:55:24;4.75;;;2.20;;
73382;SDS011;61600;48.126;11.542;2023-07-13T08:58:05;5.10;;;1.80;;
73382;SDS011;61600;48.126;11.542;2023-07-13T09:03:36;3.90;;;1.90;;
73382;SDS011;61600;48.126;11.542;2023-07-13T09:06:20;6.10;;;1.70;;
73382;SDS011;61600;48.126;11.542;2023-07-13T09:08:55;8.10;;;1.95;;
73382;SDS011;61600;48.126;11.542;2023-07-13T09:11:52;3.78;;;1.85;;
73382;SDS011;61600;48.126;11.542;2023-07-13T09:14:33;6.35;;;1.77;;
73382;SDS011;61600;48.126;11.542;2023-07-13T09:17:04;6.53;;;2.22;;
73382;SDS011;61600;48.126;11.542;2023-07-13T09:19:31;4.90;;;2.20;;
73382;SDS011;61600;48.126;11.542;2023-07-13T09:21:59;7.32;;;2.67;;
73382;SDS011;61600;48.126;11.542;2023-07-13T09:24:29;6.53;;;1.60;;
73382;SDS011;61600;48.126;11.542;2023-07-13T09:26:56;3.40;;;1.65;;
73382;SDS011;61600;48.126;11.542;2023-07-13T09:29:26;4.80;;;1.85;;
73382;SDS011;61600;48.126;11.542;2023-07-13T09:31:55;5.57;;;1.95;;
73382;SDS011;61600;48.126;11.542;2023-07-13T09:34:25;4.00;;;1.77;;
73382;SDS011;61600;48.126;11.542;2023-07-13T09:36:51;4.90;;;1.92;;
73382;SDS011;61600;48.126;11.542;2023-07-13T09:39:28;6.00;;;1.80;;
73382;SDS011;61600;48.126;11.542;2023-07-13T09:44:53;3.22;;;1.50;;
73382;SDS011;61600;48.126;11.542;2023-07-13T09:47:21;3.28;;;1.45;;
73382;SDS011;61600;48.126;11.542;2023-07-13T09:49:55;4.63;;;1.90;;
73382;SDS011;61600;48.126;11.542;2023-07-13T09:52:23;2.45;;;1.58;;
73382;SDS011;61600;48.126;11.542;2023-07-13T09:54:51;5.57;;;1.50;;
73382;SDS011;61600;48.126;11.542;2023-07-13T09:57:24;3.72;;;1.80;;
73382;SDS011;61600;48.126;11.542;2023-07-13T09:59:53;4.45;;;1.95;;
73382;SDS011;61600;48.126;11.542;2023-07-13T10:02:22;6.50;;;2.08;;
73382;SDS011;61600;48.126;11.542;2023-07-13T10:05:11;6.40;;;2.03;;
73382;SDS011;61600;48.126;11.542;2023-07-13T10:07:42;7.85;;;2.03;;
73382;SDS011;61600;48.126;11.542;2023-07-13T10:12:48;5.78;;;1.73;;
73382;SDS011;61600;48.126;11.542;2023-07-13T10:15:19;3.80;;;1.65;;
73382;SDS011;61600;48.126;11.542;2023-07-13T10:17:47;4.68;;;1.90;;
73382;SDS011;61600;48.126;11.542;2023-07-13T10:20:15;3.95;;;1.40;;
73382;SDS011;61600;48.126;11.542;2023-07-13T10:25:18;3.03;;;1.40;;
73382;SDS011;61600;48.126;11.542;2023-07-13T10:27:49;7.20;;;1.95;;
73382;SDS011;61600;48.126;11.542;2023-07-13T10:30:35;4.18;;;1.33;;
73382;SDS011;61600;48.126;11.542;2023-07-13T10:33:08;2.85;;;1.30;;
73382;SDS011;61600;48.126;11.542;2023-07-13T10:35:37;4.63;;;1.42;;
73382;SDS011;61600;48.126;11.542;2023-07-13T10:38:07;4.45;;;1.33;;
73382;SDS011;61600;48.126;11.542;2023-07-13T10:43:18;3.67;;;1.30;;
73382;SDS011;61600;48.126;11.542;2023-07-13T10:45:50;2.38;;;1.20;;
73382;SDS011;61600;48.126;11.542;2023-07-13T10:48:16;3.75;;;1.08;;
73382;SDS011;61600;48.126;11.542;2023-07-13T10:50:44;3.90;;;1.30;;
73382;SDS011;61600;48.126;11.542;2023-07-13T10:53:18;3.70;;;1.33;;
73382;SDS011;61600;48.126;11.542;2023-07-13T11:08:57;2.83;;;1.33;;
73382;SDS011;61600;48.126;11.542;2023-07-13T11:11:33;4.57;;;1.63;;
73382;SDS011;61600;48.126;11.542;2023-07-13T11:14:02;3.85;;;1.60;;
73382;SDS011;61600;48.126;11.542;2023-07-13T11:16:38;6.35;;;1.60;;
73382;SDS011;61600;48.126;11.542;2023-07-13T11:22:09;2.38;;;1.30;;
73382;SDS011;61600;48.126;11.542;2023-07-13T11:27:21;4.13;;;1.40;;
73382;SDS011;61600;48.126;11.542;2023-07-13T11:35:42;2.83;;;1.45;;
73382;SDS011;61600;48.126;11.542;2023-07-13T11:38:19;3.17;;;1.30;;
73382;SDS011;61600;48.126;11.542;2023-07-13T11:43:45;2.30;;;1.17;;
73382;SDS011;61600;48.126;11.542;2023-07-13T11:46:20;6.32;;;1.20;;
73382;SDS011;61600;48.126;11.542;2023-07-13T11:48:48;4.65;;;1.40;;
73382;SDS011;61600;48.126;11.542;2023-07-13T11:51:22;2.08;;;1.17;;
73382;SDS011;61600;48.126;11.542;2023-07-13T11:53:56;3.03;;;1.20;;
73382;SDS011;61600;48.126;11.542;2023-07-13T11:56:26;4.70;;;1.33;;
73382;SDS011;61600;48.126;11.542;2023-07-13T11:58:53;1.98;;;1.02;;
73382;SDS011;61600;48.126;11.542;2023-07-13T12:01:26;5.35;;;1.50;;
73382;SDS011;61600;48.126;11.542;2023-07-13T12:04:03;3.92;;;1.20;;
73382;SDS011;61600;48.126;11.542;2023-07-13T12:06:33;2.40;;;1.20;;
73382;SDS011;61600;48.126;11.542;2023-07-13T12:09:03;3.63;;;1.35;;
73382;SDS011;61600;48.126;11.542;2023-07-13T12:11:39;2.72;;;1.30;;
73382;SDS011;61600;48.126;11.542;2023-07-13T12:14:16;2.85;;;1.20;;
73382;SDS011;61600;48.126;11.542;2023-07-13T12:16:44;5.47;;;1.40;;
73382;SDS011;61600;48.126;11.542;2023-07-13T12:21:46;4.18;;;1.38;;
73382;SDS011;61600;48.126;11.542;2023-07-13T12:24:16;3.72;;;1.30;;
73382;SDS011;61600;48.126;11.542;2023-07-13T12:26:43;6.43;;;1.80;;
73382;SDS011;61600;48.126;11.542;2023-07-13T12:29:13;4.65;;;1.42;;
73382;SDS011;61600;48.126;11.542;2023-07-13T12:31:43;3.75;;;1.52;;
73382;SDS011;61600;48.126;11.542;2023-07-13T12:34:11;5.20;;;1.58;;
73382;SDS011;61600;48.126;11.542;2023-07-13T12:36:54;7.32;;;1.67;;
73382;SDS011;61600;48.126;11.542;2023-07-13T12:39:25;3.72;;;1.35;;
73382;SDS011;61600;48.126;11.542;2023-07-13T12:42:18;3.83;;;1.73;;
73382;SDS011;61600;48.126;11.542;2023-07-13T12:47:42;5.00;;;2.17;;
73382;SDS011;61600;48.126;11.542;2023-07-13T12:50:15;3.28;;;1.33;;
73382;SDS011;61600;48.126;11.542;2023-07-13T12:52:50;2.45;;;1.30;;
73382;SDS011;61600;48.126;11.542;2023-07-13T12:55:18;2.95;;;1.30;;
73382;SDS011;61600;48.126;11.542;2023-07-13T12:57:49;2.83;;;1.58;;
73382;SDS011;61600;48.126;11.542;2023-07-13T13:00:22;7.28;;;1.55;;
73382;SDS011;61600;48.126;11.542;2023-07-13T13:02:50;6.30;;;1.90;;
73382;SDS011;61600;48.126;11.542;2023-07-13T13:05:17;6.97;;;1.50;;
73382;SDS011;61600;48.126;11.542;2023-07-13T13:07:43;7.68;;;1.63;;
73382;SDS011;61600;48.126;11.542;2023-07-13T13:10:12;4.72;;;1.50;;
73382;SDS011;61600;48.126;11.542;2023-07-13T13:12:39;3.95;;;1.33;;
73382;SDS011;61600;48.126;11.542;2023-07-13T13:15:08;3.70;;;1.60;;
73382;SDS011;61600;48.126;11.542;2023-07-13T13:17:35;3.70;;;1.30;;
73382;SDS011;61600;48.126;11.542;2023-07-13T13:20:01;2.90;;;1.20;;
73382;SDS011;61600;48.126;11.542;2023-07-13T13:22:28;2.92;;;1.40;;
73382;SDS011;61600;48.126;11.542;2023-07-13T13:24:54;4.80;;;1.40;;
73382;SDS011;61600;48.126;11.542;2023-07-13T13:27:20;7.45;;;1.60;;
73382;SDS011;61600;48.126;11.542;2023-07-13T13:29:51;6.32;;;1.50;;
73382;SDS011;61600;48.126;11.542;2023-07-13T13:32:23;4.97;;;1.23;;
73382;SDS011;61600;48.126;11.542;2023-07-13T13:37:23;3.17;;;1.23;;
73382;SDS011;61600;48.126;11.542;2023-07-13T13:39:50;3.63;;;1.20;;
73382;SDS011;61600;48.126;11.542;2023-07-13T13:42:17;4.32;;;1.30;;
73382;SDS011;61600;48.126;11.542;2023-07-13T13:44:43;6.93;;;1.98;;
73382;SDS011;61600;48.126;11.542;2023-07-13T13:47:27;19.60;;;2.88;;
73382;SDS011;61600;48.126;11.542;2023-07-13T13:49:56;7.25;;;1.50;;
73382;SDS011;61600;48.126;11.542;2023-07-13T13:52:23;6.10;;;1.40;;
73382;SDS011;61600;48.126;11.542;2023-07-13T13:54:49;8.35;;;1.85;;
73382;SDS011;61600;48.126;11.542;2023-07-13T13:57:15;3.15;;;1.30;;
73382;SDS011;61600;48.126;11.542;2023-07-13T13:59:41;3.78;;;1.30;;
73382;SDS011;61600;48.126;11.542;2023-07-13T14:02:16;9.75;;;1.73;;
73382;SDS011;61600;48.126;11.542;2023-07-13T14:04:49;4.07;;;1.50;;
73382;SDS011;61600;48.126;11.542;2023-07-13T14:07:20;7.85;;;1.75;;
73382;SDS011;61600;48.126;11.542;2023-07-13T14:09:45;5.28;;;1.20;;
73382;SDS011;61600;48.126;11.542;2023-07-13T14:12:11;2.50;;;1.40;;
73382;SDS011;61600;48.126;11.542;2023-07-13T14:14:37;3.35;;;1.40;;
73382;SDS011;61600;48.126;11.542;2023-07-13T14:17:03;2.40;;;1.40;;
73382;SDS011;61600;48.126;11.542;2023-07-13T14:19:29;3.70;;;1.50;;
73382;SDS011;61600;48.126;11.542;2023-07-13T14:21:55;2.33;;;1.10;;
73382;SDS011;61600;48.126;11.542;2023-07-13T14:24:21;4.30;;;1.30;;
73382;SDS011;61600;48.126;11.542;2023-07-13T14:26:47;4.00;;;1.27;;
73382;SDS011;61600;48.126;11.542;2023-07-13T14:29:14;3.67;;;1.17;;
73382;SDS011;61600;48.126;11.542;2023-07-13T14:31:43;5.25;;;1.58;;
73382;SDS011;61600;48.126;11.542;2023-07-13T14:34:10;4.15;;;1.52;;
73382;SDS011;61600;48.126;11.542;2023-07-13T14:36:38;3.10;;;1.65;;
73382;SDS011;61600;48.126;11.542;2023-07-13T14:39:14;2.20;;;1.20;;
73382;SDS011;61600;48.126;11.542;2023-07-13T14:41:45;2.58;;;1.27;;
73382;SDS011;61600;48.126;11.542;2023-07-13T14:44:12;2.53;;;1.20;;
73382;SDS011;61600;48.126;11.542;2023-07-13T14:46:39;2.60;;;1.05;;
73382;SDS011;61600;48.126;11.542;2023-07-13T14:49:09;4.63;;;1.42;;
73382;SDS011;61600;48.126;11.542;2023-07-13T14:51:41;5.68;;;1.30;;
73382;SDS011;61600;48.126;11.542;2023-07-13T14:54:07;3.13;;;1.40;;
73382;SDS011;61600;48.126;11.542;2023-07-13T14:56:35;3.05;;;1.20;;
73382;SDS011;61600;48.126;11.542;2023-07-13T14:59:00;2.55;;;1.35;;
73382;SDS011;61600;48.126;11.542;2023-07-13T15:01:26;3.30;;;1.15;;
73382;SDS011;61600;48.126;11.542;2023-07-13T15:03:52;3.75;;;1.30;;
73382;SDS011;61600;48.126;11.542;2023-07-13T15:06:19;1.67;;;1.10;;
73382;SDS011;61600;48.126;11.542;2023-07-13T15:08:45;3.42;;;1.13;;
73382;SDS011;61600;48.126;11.542;2023-07-13T15:11:11;3.70;;;1.08;;
73382;SDS011;61600;48.126;11.542;2023-07-13T15:13:38;2.97;;;1.30;;
73382;SDS011;61600;48.126;11.542;2023-07-13T15:16:18;4.55;;;1.35;;
73382;SDS011;61600;48.126;11.542;2023-07-13T15:18:48;4.45;;;1.80;;
73382;SDS011;61600;48.126;11.542;2023-07-13T15:21:17;6.40;;;1.58;;
73382;SDS011;61600;48.126;11.542;2023-07-13T15:23:46;3.95;;;1.20;;
73382;SDS011;61600;48.126;11.542;2023-07-13T15:26:14;3.03;;;1.50;;
73382;SDS011;61600;48.126;11.542;2023-07-13T15:28:41;3.55;;;1.30;;
73382;SDS011;61600;48.126;11.542;2023-07-13T15:31:17;3.15;;;1.58;;
73382;SDS011;61600;48.126;11.542;2023-07-13T15:33:45;1.73;;;1.00;;
73382;SDS011;61600;48.126;11.542;2023-07-13T15:36:14;6.68;;;3.03;;
73382;SDS011;61600;48.126;11.542;2023-07-13T15:38:40;3.08;;;1.30;;
73382;SDS011;61600;48.126;11.542;2023-07-13T15:43:51;4.70;;;1.30;;
73382;SDS011;61600;48.126;11.542;2023-07-13T15:46:19;5.38;;;1.38;;
73382;SDS011;61600;48.126;11.542;2023-07-13T15:48:49;3.90;;;1.35;;